Time;durP1;ratioP1;P1;durP2;ratioP2;P2;SDS_P1;SDS_P2;PMS_P1;PMS_P2;Temp;Humidity;BMP_temperature;BMP_pressure;BME280_temperature;BME280_humidity;BME280_pressure;Samples;Min_cycle;Max_cycle;Signal;HPM_P1;HPM_P2
2022/05/02 00:01:57;;;;;;;;;;;;;;;17.49;43.50;101133.31;5078418;28;789;-55
2022/05/02 00:04:22;;;;;;;;;;;;;;;17.50;43.64;101142.38;5098131;28;1913;-54
2022/05/02 00:06:47;;;;;;;;;;;;;;;17.45;43.64;101144.00;5090031;28;1097;-54
2022/05/02 00:09:13;;;;;;;;;;;;;;;17.43;43.40;101137.13;5078120;28;935;-55
2022/05/02 00:11:38;;;;;;;;;;;;;;;17.42;43.54;101139.06;5078180;28;848;-55
2022/05/02 00:14:04;;;;;;;;;;;;;;;17.41;43.33;101129.13;5078221;28;977;-55
2022/05/02 00:16:29;;;;;;;;;;;;;;;17.42;43.42;101130.81;5078646;28;859;-55
2022/05/02 00:18:55;;;;;;;;;;;;;;;17.44;43.68;101125.84;5077973;28;819;-55
2022/05/02 00:21:20;;;;;;;;;;;;;;;17.39;43.55;101117.59;5095361;28;804;-54
2022/05/02 00:23:45;;;;;;;;;;;;;;;17.43;43.46;101124.22;5091876;28;1910;-55
2022/05/02 00:26:11;;;;;;;;;;;;;;;17.41;43.97;101117.34;5077999;28;808;-54
2022/05/02 00:28:36;;;;;;;;;;;;;;;17.43;44.09;101120.63;5077804;28;829;-55
2022/05/02 00:31:03;;;;;;;;;;;;;;;17.43;43.75;101120.63;5077921;28;846;-52
2022/05/02 00:33:29;;;;;;;;;;;;;;;17.47;43.73;101129.16;5080584;28;860;-55
2022/05/02 00:35:54;;;;;;;;;;;;;;;17.43;43.76;101126.97;5077839;28;916;-55
2022/05/02 00:38:20;;;;;;;;;;;;;;;17.34;43.72;101134.06;5079548;28;953;-55
2022/05/02 00:40:45;;;;;;;;;;;;;;;17.38;43.69;101143.44;5082224;28;1148;-54
2022/05/02 00:43:11;;;;;;;;;;;;;;;17.35;43.67;101138.47;5075903;28;1905;-56
2022/05/02 00:45:39;;;;;;;;;;;;;;;17.29;43.84;101125.81;5077397;28;892;-54
2022/05/02 00:48:05;;;;;;;;;;;;;;;17.36;43.54;101133.81;5077570;28;853;-55
2022/05/02 00:50:34;;;;;;;;;;;;;;;17.30;43.38;101134.91;5077828;28;845;-55
2022/05/02 00:53:00;;;;;;;;;;;;;;;17.33;43.51;101135.16;5077355;28;915;-54
2022/05/02 00:55:25;;;;;;;;;;;;;;;17.30;43.23;101134.91;5077897;28;950;-53
2022/05/02 00:57:51;;;;;;;;;;;;;;;17.27;43.49;101137.06;5077279;28;863;-55
2022/05/02 01:00:17;;;;;;;;;;;;;;;17.28;43.53;101137.91;5075511;28;848;-54
2022/05/02 01:02:43;;;;;;;;;;;;;;;17.28;43.56;101126.91;5077382;28;782;-54
2022/05/02 01:05:09;;;;;;;;;;;;;;;17.25;43.30;101130.19;5077423;28;747;-54
2022/05/02 01:07:34;;;;;;;;;;;;;;;17.27;43.28;101130.75;5077431;28;839;-54
2022/05/02 01:10:00;;;;;;;;;;;;;;;17.28;43.42;101132.41;5076724;28;879;-51
2022/05/02 01:12:25;;;;;;;;;;;;;;;17.24;43.28;101132.13;5076961;28;832;-51
2022/05/02 01:14:54;;;;;;;;;;;;;;;17.23;43.65;101137.88;5076543;28;975;-54
2022/05/02 01:17:20;;;;;;;;;;;;;;;17.25;43.39;101133.78;5076845;28;817;-54
2022/05/02 01:19:45;;;;;;;;;;;;;;;17.24;43.42;101129.38;5077299;28;828;-53
2022/05/02 01:22:11;;;;;;;;;;;;;;;17.25;43.44;101130.19;5076580;28;738;-54
2022/05/02 01:24:40;;;;;;;;;;;;;;;17.27;43.57;101126.06;5087416;28;1905;-54
2022/05/02 01:27:06;;;;;;;;;;;;;;;17.30;43.61;101132.97;5096385;28;842;-54
2022/05/02 01:29:32;;;;;;;;;;;;;;;17.22;43.92;101125.22;5096333;28;896;-53
2022/05/02 01:31:58;;;;;;;;;;;;;;;17.27;43.98;101125.25;5096566;28;805;-54
2022/05/02 01:34:23;;;;;;;;;;;;;;;17.24;43.81;101125.81;5096259;28;809;-53
2022/05/02 01:36:48;;;;;;;;;;;;;;;17.26;44.03;101123.59;5085190;28;793;-53
2022/05/02 01:39:14;;;;;;;;;;;;;;;17.33;43.80;101129.66;5076827;28;878;-52
2022/05/02 01:41:39;;;;;;;;;;;;;;;17.27;43.69;101123.31;5077143;28;813;-52
2022/05/02 01:44:05;;;;;;;;;;;;;;;17.22;43.83;101114.25;5076340;28;1918;-53
2022/05/02 01:46:30;;;;;;;;;;;;;;;17.20;43.84;101116.44;5076473;28;903;-53
2022/05/02 01:48:56;;;;;;;;;;;;;;;17.25;43.63;101114.53;5078372;28;830;-50
2022/05/02 01:51:21;;;;;;;;;;;;;;;17.14;43.71;101098.25;5075230;28;818;-53
2022/05/02 01:53:47;;;;;;;;;;;;;;;17.22;43.69;101111.50;5076587;28;869;-56
2022/05/02 01:56:12;;;;;;;;;;;;;;;17.23;43.84;101113.97;5076649;28;837;-51
2022/05/02 01:58:37;;;;;;;;;;;;;;;17.22;43.52;101114.25;5076583;28;761;-54
2022/05/02 02:01:03;;;;;;;;;;;;;;;17.22;43.41;101111.50;5075901;28;1389;-54
2022/05/02 02:03:28;;;;;;;;;;;;;;;17.15;43.84;101110.91;5076373;28;1906;-54
2022/05/02 02:05:54;;;;;;;;;;;;;;;17.19;43.58;101120.28;5076551;28;872;-53
2022/05/02 02:08:26;;;;;;;;;;;;;;;17.17;43.56;101122.47;5076823;28;1173;-54
2022/05/02 02:10:53;;;;;;;;;;;;;;;17.14;43.78;101120.25;5075981;28;854;-55
2022/05/02 02:13:18;;;;;;;;;;;;;;;17.14;43.44;101121.09;5075846;28;1071;-53
2022/05/02 02:15:44;;;;;;;;;;;;;;;17.14;43.78;101121.09;5076236;28;858;-54
2022/05/02 02:18:09;;;;;;;;;;;;;;;17.17;43.46;101122.47;5076068;28;845;-54
2022/05/02 02:20:35;;;;;;;;;;;;;;;17.13;43.59;101118.63;5076961;28;801;-53
2022/05/02 02:23:00;;;;;;;;;;;;;;;17.13;43.83;101113.13;5095741;28;1991;-54
2022/05/02 02:25:26;;;;;;;;;;;;;;;17.20;43.69;101113.69;5082458;28;985;-50
2022/05/02 02:27:52;;;;;;;;;;;;;;;17.17;43.60;101114.25;5080824;28;818;-54
2022/05/02 02:30:19;;;;;;;;;;;;;;;17.17;43.68;101108.75;5075820;28;1026;-53
2022/05/02 02:32:44;;;;;;;;;;;;;;;17.15;43.69;101108.97;5076094;28;861;-54
2022/05/02 02:35:10;;;;;;;;;;;;;;;17.16;43.61;101118.06;5076391;28;804;-52
2022/05/02 02:37:35;;;;;;;;;;;;;;;17.13;43.43;101113.13;5075580;28;972;-53
2022/05/02 02:40:01;;;;;;;;;;;;;;;17.07;43.70;101102.09;5075304;28;1016;-53
2022/05/02 02:42:26;;;;;;;;;;;;;;;17.16;43.39;101112.59;5076184;28;1392;-54
2022/05/02 02:44:51;;;;;;;;;;;;;;;17.12;43.36;101111.47;5075738;28;1979;-54
2022/05/02 02:47:17;;;;;;;;;;;;;;;17.13;43.57;101113.13;5076460;28;794;-54
2022/05/02 02:49:42;;;;;;;;;;;;;;;17.14;43.66;101109.25;5075852;28;785;-54
2022/05/02 02:52:08;;;;;;;;;;;;;;;17.17;43.46;101111.50;5079956;28;794;-54
2022/05/02 02:54:34;;;;;;;;;;;;;;;17.18;43.66;101107.63;5084519;28;840;-54
2022/05/02 02:56:59;;;;;;;;;;;;;;;17.21;43.61;101109.84;5095706;28;817;-53
2022/05/02 02:59:24;;;;;;;;;;;;;;;17.19;43.77;101107.34;5095066;28;790;-54
2022/05/02 03:01:50;;;;;;;;;;;;;;;17.12;44.07;101105.97;5094401;28;848;-50
2022/05/02 03:06:59;;;;;;;;;;;;;;;17.19;44.00;101104.59;5074678;28;961;-53
2022/05/02 03:09:25;;;;;;;;;;;;;;;17.21;44.02;101109.84;5076381;28;938;-53
2022/05/02 03:11:50;;;;;;;;;;;;;;;17.21;44.03;101109.84;5074266;28;790;-54
2022/05/02 03:14:15;;;;;;;;;;;;;;;17.22;44.02;101103.25;5075583;28;1162;-54
2022/05/02 03:16:41;;;;;;;;;;;;;;;17.19;43.91;101101.03;5075698;28;781;-53
2022/05/02 03:19:06;;;;;;;;;;;;;;;17.15;43.99;101102.69;5075335;28;871;-52
2022/05/02 03:21:32;;;;;;;;;;;;;;;17.15;44.03;101108.97;5075864;28;734;-53
2022/05/02 03:23:57;;;;;;;;;;;;;;;17.16;43.85;101101.59;5077572;28;1957;-52
2022/05/02 03:26:22;;;;;;;;;;;;;;;17.21;43.79;101098.88;5079193;28;726;-54
2022/05/02 03:28:48;;;;;;;;;;;;;;;17.23;43.62;101102.97;5078899;28;810;-54
2022/05/02 03:31:15;;;;;;;;;;;;;;;17.22;43.78;101098.59;5078703;28;955;-53
2022/05/02 03:33:40;;;;;;;;;;;;;;;17.21;44.03;101104.38;5079345;28;932;-55
2022/05/02 03:36:06;;;;;;;;;;;;;;;17.25;43.83;101098.03;5079233;28;832;-53
2022/05/02 03:38:31;;;;;;;;;;;;;;;17.21;43.96;101099.69;5079348;28;861;-54
2022/05/02 03:40:57;;;;;;;;;;;;;;;17.21;43.95;101098.88;5078812;28;1068;-54
2022/05/02 03:43:22;;;;;;;;;;;;;;;17.24;43.84;101092.81;5091698;28;1973;-54
2022/05/02 03:45:48;;;;;;;;;;;;;;;17.24;43.62;101092.81;5078697;28;736;-57
2022/05/02 03:48:13;;;;;;;;;;;;;;;17.28;43.91;101093.94;5078543;28;818;-56
2022/05/02 03:50:39;;;;;;;;;;;;;;;17.25;43.87;101094.44;5078588;28;1109;-56
2022/05/02 03:53:04;;;;;;;;;;;;;;;17.21;43.78;101090.63;5079081;28;1039;-60
2022/05/02 03:55:30;;;;;;;;;;;;;;;17.20;43.67;101098.03;5083097;28;846;-57
2022/05/02 03:57:55;;;;;;;;;;;;;;;17.21;43.74;101098.88;5080440;28;798;-57
2022/05/02 04:00:20;;;;;;;;;;;;;;;17.19;43.66;101095.53;5078121;28;711;-57
2022/05/02 04:02:46;;;;;;;;;;;;;;;17.24;43.69;101084.56;5079006;28;691;-58
2022/05/02 04:05:11;;;;;;;;;;;;;;;17.21;43.58;101083.19;5081914;28;1975;-57
2022/05/02 04:07:37;;;;;;;;;;;;;;;17.23;43.45;101080.16;5097859;28;793;-56
2022/05/02 04:10:03;;;;;;;;;;;;;;;17.20;43.79;101078.78;5080995;28;847;-57
2022/05/02 04:12:34;;;;;;;;;;;;;;;17.20;43.52;101076.03;5078663;28;871;-56
2022/05/02 04:14:59;;;;;;;;;;;;;;;17.23;43.51;101071.94;5078177;28;1251;-57
2022/05/02 04:17:26;;;;;;;;;;;;;;;17.31;43.77;101074.16;5078491;28;1004;-56
2022/05/02 04:19:51;;;;;;;;;;;;;;;17.37;44.03;101078.53;5078298;28;842;-56
2022/05/02 04:22:17;;;;;;;;;;;;;;;17.38;44.14;101076.66;5077878;28;1112;-57
2022/05/02 04:24:42;;;;;;;;;;;;;;;17.42;44.18;101077.75;5086838;28;1913;-57
2022/05/02 04:27:08;;;;;;;;;;;;;;;17.42;44.33;101078.56;5097410;28;889;-57
2022/05/02 04:29:33;;;;;;;;;;;;;;;17.49;44.64;101074.72;5097375;28;836;-56
2022/05/02 04:31:58;;;;;;;;;;;;;;;17.48;44.76;101070.34;5097297;28;897;-56
2022/05/02 04:34:26;;;;;;;;;;;;;;;17.57;44.71;101065.94;5086374;28;825;-57
2022/05/02 04:36:51;;;;;;;;;;;;;;;17.58;44.68;101062.09;5077942;28;832;-55
2022/05/02 04:39:17;;;;;;;;;;;;;;;17.56;45.00;101051.38;5078005;28;923;-56
2022/05/02 04:41:42;;;;;;;;;;;;;;;17.62;44.90;101057.69;5076505;28;766;-56
2022/05/02 04:44:08;;;;;;;;;;;;;;;17.67;45.12;101049.47;5078076;28;1988;-56
2022/05/02 04:46:33;;;;;;;;;;;;;;;17.68;45.17;101051.09;5077129;28;767;-56
2022/05/02 04:48:59;;;;;;;;;;;;;;;17.66;44.99;101050.56;5096995;28;810;-55
2022/05/02 04:51:24;;;;;;;;;;;;;;;17.73;45.08;101056.59;5097078;28;805;-55
2022/05/02 04:53:50;;;;;;;;;;;;;;;17.77;45.17;101046.72;5091162;28;749;-56
2022/05/02 04:56:15;;;;;;;;;;;;;;;17.76;45.43;101039.53;5077281;28;739;-56
2022/05/02 04:58:41;;;;;;;;;;;;;;;17.85;45.58;101052.75;5077573;28;834;-56
2022/05/02 05:01:06;;;;;;;;;;;;;;;17.87;45.28;101045.88;5077468;28;825;-56
2022/05/02 05:03:32;;;;;;;;;;;;;;;17.88;45.53;101043.94;5077238;28;2392;-56
2022/05/02 05:05:57;;;;;;;;;;;;;;;17.84;45.50;101034.59;5077359;28;902;-56
2022/05/02 05:08:23;;;;;;;;;;;;;;;17.86;45.55;101035.16;5077591;28;857;-56
2022/05/02 05:11:06;;;;;;;;;;;;;;;17.97;45.41;101050.59;5077039;28;793;-56
2022/05/02 05:13:43;;;;;;;;;;;;;;;18.00;45.60;101044.53;5076996;28;1329;-55
2022/05/02 05:16:21;;;;;;;;;;;;;;;17.96;45.72;101048.94;5089334;28;864;-56
2022/05/02 05:19:05;;;;;;;;;;;;;;;18.02;45.51;101039.59;5096300;28;738;-57
2022/05/02 05:21:32;;;;;;;;;;;;;;;18.00;45.92;101040.94;5096754;28;810;-56
2022/05/02 05:24:00;;;;;;;;;;;;;;;18.04;45.84;101045.63;5089087;28;1917;-56
2022/05/02 05:26:45;;;;;;;;;;;;;;;18.04;45.93;101042.88;5076547;28;832;-57
2022/05/02 05:29:19;;;;;;;;;;;;;;;18.07;46.06;101045.06;5097008;28;1050;-55
2022/05/02 05:31:51;;;;;;;;;;;;;;;18.09;45.74;101040.13;5096611;28;761;-55
2022/05/02 05:34:24;;;;;;;;;;;;;;;18.09;45.71;101040.13;5096131;28;849;-56
2022/05/02 05:37:01;;;;;;;;;;;;;;;18.09;46.12;101042.88;5093973;28;975;-56
2022/05/02 05:39:44;;;;;;;;;;;;;;;18.16;45.70;101047.25;5077114;28;776;-57
2022/05/02 05:42:12;;;;;;;;;;;;;;;18.17;45.88;101048.91;5076790;28;865;-57
2022/05/02 05:44:58;;;;;;;;;;;;;;;18.15;45.92;101049.19;5076223;28;1909;-56
2022/05/02 05:47:39;;;;;;;;;;;;;;;18.09;45.60;101053.88;5090286;28;829;-56
2022/05/02 05:50:04;;;;;;;;;;;;;;;17.87;44.94;101056.06;5092668;28;914;-57
2022/05/02 05:52:30;;;;;;;;;;;;;;;17.66;43.53;101056.06;5076562;28;726;-57
2022/05/02 05:55:05;;;;;;;;;;;;;;;17.36;42.55;101060.44;5076821;28;860;-57
2022/05/02 05:57:46;;;;;;;;;;;;;;;17.23;41.63;101058.19;5076327;28;845;-57
2022/05/02 06:00:12;;;;;;;;;;;;;;;17.07;41.04;101060.06;5076457;28;777;-56
2022/05/02 06:02:38;;;;;;;;;;;;;;;16.91;40.39;101054.53;5076062;28;829;-56
2022/05/02 06:05:03;;;;;;;;;;;;;;;16.86;40.13;101068.19;5075947;28;1988;-57
2022/05/02 06:07:28;;;;;;;;;;;;;;;16.79;40.04;101058.53;5076534;28;769;-57
2022/05/02 06:09:57;;;;;;;;;;;;;;;16.70;40.00;101056.31;5074906;28;844;-56
2022/05/02 06:12:23;;;;;;;;;;;;;;;16.80;40.79;101065.69;5075062;28;1075;-57
2022/05/02 06:20:19;;;;;;;;;;;;;;;17.39;44.54;101068.13;5094690;28;801;-58
2022/05/02 06:22:44;;;;;;;;;;;;;;;17.69;46.12;101066.50;5094159;28;992;-58
2022/05/02 06:25:10;;;;;;;;;;;;;;;17.94;47.03;101064.91;5078439;28;1909;-58
2022/05/02 06:27:36;;;;;;;;;;;;;;;18.39;47.54;101060.41;5076274;28;834;-58
2022/05/02 06:30:01;;;;;;;;;;;;;;;18.79;47.33;101066.91;5074493;28;1204;-58
2022/05/02 06:32:28;;;;;;;;;;;;;;;18.42;48.54;101062.63;5075956;28;912;-59
2022/05/02 06:34:53;;;;;;;;;;;;;;;17.60;49.51;101070.91;5074069;28;855;-57
2022/05/02 06:37:34;;;;;;;;;;;;;;;17.36;47.98;101071.44;5075100;28;865;-57
2022/05/02 06:40:08;;;;;;;;;;;;;;;17.39;44.88;101070.03;5076096;28;1012;-56
2022/05/02 06:42:48;;;;;;;;;;;;;;;17.18;43.34;101078.25;5074120;28;864;-56
2022/05/02 06:45:30;;;;;;;;;;;;;;;16.99;41.70;101072.41;5075915;28;2056;-56
2022/05/02 06:47:55;;;;;;;;;;;;;;;16.85;40.68;101077.53;5076156;28;734;-56
2022/05/02 06:50:22;;;;;;;;;;;;;;;16.75;40.80;101074.75;5076175;28;896;-56
2022/05/02 06:52:52;;;;;;;;;;;;;;;16.95;42.14;101079.53;5075831;28;826;-56
2022/05/02 06:55:36;;;;;;;;;;;;;;;17.27;44.32;101082.09;5077561;28;1002;-56
2022/05/02 06:58:16;;;;;;;;;;;;;;;17.64;46.80;101090.44;5089735;28;909;-57
2022/05/02 07:00:52;;;;;;;;;;;;;;;18.12;48.57;101088.28;5099319;28;891;-56
2022/05/02 07:03:28;;;;;;;;;;;;;;;18.64;49.12;101078.81;5098990;28;1970;-56
2022/05/02 07:05:56;;;;;;;;;;;;;;;18.70;49.01;101079.59;5097415;28;954;-57
2022/05/02 07:08:28;;;;;;;;;;;;;;;17.63;51.23;101089.59;5091674;28;823;-56
2022/05/02 07:10:56;;;;;;;;;;;;;;;17.35;48.87;101089.00;5079066;28;841;-56
2022/05/02 07:13:21;;;;;;;;;;;;;;;17.37;45.90;101081.28;5092381;28;1069;-58
2022/05/02 07:15:50;;;;;;;;;;;;;;;17.26;44.29;101087.88;5098953;28;925;-55
2022/05/02 07:18:15;;;;;;;;;;;;;;;17.14;42.75;101085.38;5079331;28;792;-56
2022/05/02 07:20:41;;;;;;;;;;;;;;;17.03;42.03;101081.75;5082376;28;920;-57
2022/05/02 07:23:21;;;;;;;;;;;;;;;16.88;41.29;101076.16;5079517;28;1901;-55
2022/05/02 07:25:48;;;;;;;;;;;;;;;16.82;40.82;101080.00;5079598;28;900;-55
2022/05/02 07:28:32;;;;;;;;;;;;;;;16.75;40.61;101081.06;5079539;28;819;-56
2022/05/02 07:30:58;;;;;;;;;;;;;;;16.61;40.42;101077.16;5079159;28;880;-57
2022/05/02 07:33:25;;;;;;;;;;;;;;;16.68;41.14;101074.97;5078785;28;768;-57
2022/05/02 07:35:51;;;;;;;;;;;;;;;16.92;42.45;101085.56;5077692;28;897;-56
2022/05/02 07:38:17;;;;;;;;;;;;;;;17.40;45.82;101083.53;5078872;28;890;-56
2022/05/02 07:41:22;;;;;;;;;;;;;;;17.71;47.91;101078.06;5094055;28;829;-56
2022/05/02 07:43:29;;;;;;;;;;;;;;;18.01;49.27;101056.38;5098361;28;1977;-56
2022/05/02 07:45:55;;;;;;;;;;;;;;;18.28;49.51;101078.06;5085286;28;1092;-56
2022/05/02 07:48:20;;;;;;;;;;;;;;;18.47;49.84;101076.38;5077532;28;714;-56
2022/05/02 07:50:46;;;;;;;;;;;;;;;18.58;49.67;101066.16;5077423;28;756;-56
2022/05/02 07:53:11;;;;;;;;;;;;;;;18.35;48.20;101067.59;5077603;28;1039;-56
2022/05/02 07:55:38;;;;;;;;;;;;;;;17.99;46.85;101067.63;5077207;28;866;-57
2022/05/02 07:58:03;;;;;;;;;;;;;;;17.63;44.78;101062.13;5085301;28;822;-57
2022/05/02 08:00:29;;;;;;;;;;;;;;;17.48;42.96;101059.34;5089677;28;862;-57
2022/05/02 08:02:54;;;;;;;;;;;;;;;17.17;42.05;101060.09;5098400;28;737;-57
2022/05/02 08:05:20;;;;;;;;;;;;;;;17.03;41.07;101059.78;5096469;28;1984;-57
2022/05/02 08:07:46;;;;;;;;;;;;;;;16.95;40.37;101054.81;5097969;28;745;-57
2022/05/02 08:10:23;;;;;;;;;;;;;;;16.81;40.25;101056.38;5081612;28;1028;-57
2022/05/02 08:12:51;;;;;;;;;;;;;;;16.73;40.56;101053.06;5077808;28;1066;-58
2022/05/02 08:15:35;;;;;;;;;;;;;;;17.01;42.84;101053.75;5078892;28;738;-57
2022/05/02 08:18:07;;;;;;;;;;;;;;;17.56;46.71;101053.31;5078102;28;904;-57
2022/05/02 08:20:35;;;;;;;;;;;;;;;18.00;48.87;101061.03;5083933;28;853;-57
2022/05/02 08:29:12;;;;;;;;;;;;;;;18.53;48.93;101046.91;5094362;28;817;-57
2022/05/02 08:31:56;;;;;;;;;;;;;;;18.13;47.67;101049.47;5096959;28;782;-57
2022/05/02 08:34:27;;;;;;;;;;;;;;;17.77;45.37;101049.47;5097442;28;963;-57
2022/05/02 08:37:19;;;;;;;;;;;;;;;17.60;44.00;101048.91;5083212;28;890;-57
2022/05/02 08:39:47;;;;;;;;;;;;;;;17.26;42.28;101049.38;5062946;28;1139;-59
2022/05/02 08:42:31;;;;;;;;;;;;;;;17.07;40.90;101049.91;5078146;28;767;-58
2022/05/02 08:45:06;;;;;;;;;;;;;;;16.89;40.19;101044.91;5078025;28;1913;-58
2022/05/02 08:47:40;;;;;;;;;;;;;;;16.77;39.87;101034.94;5077536;28;1437;-57
2022/05/02 08:50:05;;;;;;;;;;;;;;;16.69;39.85;101037.34;5080977;28;858;-55
2022/05/02 08:52:37;;;;;;;;;;;;;;;16.79;40.96;101034.66;5077389;28;886;-57
2022/05/02 08:55:09;;;;;;;;;;;;;;;16.97;42.21;101027.91;5079776;28;869;-53
2022/05/02 08:57:49;;;;;;;;;;;;;;;17.04;43.56;101022.97;5078412;28;844;-57
2022/05/02 09:00:33;;;;;;;;;;;;;;;17.21;44.09;101025.47;5096982;28;808;-57
2022/05/02 09:03:17;;;;;;;;;;;;;;;17.30;44.78;101014.78;5078779;28;1020;-56
2022/05/02 09:06:01;;;;;;;;;;;;;;;17.41;45.17;101010.94;5090594;28;860;-56
2022/05/02 09:08:45;;;;;;;;;;;;;;;17.44;45.69;101010.38;5078985;28;858;-57
2022/05/02 09:11:10;;;;;;;;;;;;;;;17.50;45.62;101007.66;5096762;28;849;-58
2022/05/02 09:13:56;;;;;;;;;;;;;;;17.51;45.70;101010.13;5094104;28;1528;-58
2022/05/02 09:17:00;;;;;;;;;;;;;;;17.53;46.22;100996.09;5089097;28;778;-56
2022/05/02 09:19:26;;;;;;;;;;;;;;;17.63;45.82;100998.88;5032837;28;1074;-58
2022/05/02 09:21:51;;;;;;;;;;;;;;;17.65;46.04;100999.41;5033499;28;853;-57
2022/05/02 09:24:17;;;;;;;;;;;;;;;17.64;46.03;100992.25;5041016;28;1981;-57
2022/05/02 09:26:58;;;;;;;;;;;;;;;17.78;46.32;101004.34;5077328;28;1028;-57
2022/05/02 09:29:45;;;;;;;;;;;;;;;17.76;46.17;100992.78;5077351;28;723;-57
2022/05/02 09:32:17;;;;;;;;;;;;;;;17.75;46.16;101004.91;5089666;28;1017;-56
2022/05/02 09:34:45;;;;;;;;;;;;;;;17.77;46.17;100996.38;5094973;28;976;-56
2022/05/02 09:37:17;;;;;;;;;;;;;;;17.85;46.30;100986.72;5095059;28;842;-57
2022/05/02 09:39:44;;;;;;;;;;;;;;;17.82;46.38;100988.09;5083429;28;928;-57
2022/05/02 09:42:15;;;;;;;;;;;;;;;17.83;46.08;100980.69;5076674;28;929;-56
2022/05/02 09:50:40;;;;;;;;;;;;;;;17.87;45.62;100976.28;5096424;28;822;-57
2022/05/02 09:53:08;;;;;;;;;;;;;;;17.86;45.98;100974.63;5083641;28;783;-57
2022/05/02 09:58:30;;;;;;;;;;;;;;;17.86;45.56;100969.94;5091443;28;977;-57
2022/05/02 10:01:11;;;;;;;;;;;;;;;17.90;45.82;100968.28;5095533;28;891;-58
2022/05/02 10:03:37;;;;;;;;;;;;;;;17.95;45.69;100959.25;5095757;28;1960;-58
2022/05/02 10:06:04;;;;;;;;;;;;;;;17.98;45.87;100963.34;5081767;28;977;-58
2022/05/02 10:08:48;;;;;;;;;;;;;;;17.96;45.61;100938.88;5075648;28;837;-57
2022/05/02 10:11:14;;;;;;;;;;;;;;;17.98;45.92;100939.44;5075922;28;882;-56
2022/05/02 10:13:47;;;;;;;;;;;;;;;18.01;45.99;100947.13;5076208;28;1075;-57
2022/05/02 10:16:19;;;;;;;;;;;;;;;18.01;46.01;100927.88;5081375;28;798;-57
2022/05/02 10:19:00;;;;;;;;;;;;;;;18.03;46.17;100925.63;5074793;28;943;-57
2022/05/02 10:21:39;;;;;;;;;;;;;;;18.06;45.96;100919.59;5076840;28;822;-57
2022/05/02 10:24:16;;;;;;;;;;;;;;;18.17;46.22;100914.88;5078562;28;2024;-56
2022/05/02 10:26:44;;;;;;;;;;;;;;;18.12;46.07;100904.72;5094646;28;821;-57
2022/05/02 10:29:09;;;;;;;;;;;;;;;18.17;46.28;100892.03;5094198;28;877;-58
2022/05/02 10:31:35;;;;;;;;;;;;;;;18.21;46.30;100909.63;5083520;28;872;-57
2022/05/02 10:34:01;;;;;;;;;;;;;;;18.17;45.73;100892.03;5079468;28;833;-57
2022/05/02 10:36:47;;;;;;;;;;;;;;;18.11;45.86;100891.22;5080746;28;813;-56
2022/05/02 10:39:19;;;;;;;;;;;;;;;18.08;45.69;100889.84;5082749;28;1057;-57
2022/05/02 10:41:46;;;;;;;;;;;;;;;18.02;45.44;100899.25;5079184;28;1039;-57
2022/05/02 10:44:13;;;;;;;;;;;;;;;18.03;45.48;100889.88;5086525;28;1902;-58
2022/05/02 10:46:38;;;;;;;;;;;;;;;18.04;45.39;100891.53;5079665;28;821;-56
2022/05/02 10:49:08;;;;;;;;;;;;;;;18.05;45.30;100886.88;5078734;28;790;-56
2022/05/02 10:51:43;;;;;;;;;;;;;;;18.06;45.11;100888.50;5078486;28;881;-56
2022/05/02 10:54:11;;;;;;;;;;;;;;;18.02;45.27;100879.16;5079661;28;891;-56
2022/05/02 10:56:47;;;;;;;;;;;;;;;18.00;45.01;100879.44;5082197;28;865;-56
2022/05/02 10:59:16;;;;;;;;;;;;;;;18.00;45.03;100873.94;5079766;28;812;-56
2022/05/02 11:02:00;;;;;;;;;;;;;;;17.99;45.27;100861.28;5079817;28;837;-56
2022/05/02 11:04:32;;;;;;;;;;;;;;;18.04;45.12;100854.94;5079394;28;1984;-56
2022/05/02 11:06:57;;;;;;;;;;;;;;;18.00;45.27;100862.91;5079894;28;785;-56
2022/05/02 11:09:41;;;;;;;;;;;;;;;17.95;44.98;100843.72;5079756;28;857;-57
2022/05/02 11:12:10;;;;;;;;;;;;;;;17.95;44.94;100850.03;5079470;28;798;-56
2022/05/02 11:14:57;;;;;;;;;;;;;;;17.97;44.83;100854.44;5078785;28;1024;-56
2022/05/02 11:17:26;;;;;;;;;;;;;;;17.88;44.88;100859.63;5079702;28;786;-57
2022/05/02 11:22:36;;;;;;;;;;;;;;;17.89;44.31;100856.63;5078294;28;745;-56
2022/05/02 11:25:08;;;;;;;;;;;;;;;17.79;44.36;100874.00;5079412;28;1985;-57
2022/05/02 11:27:33;;;;;;;;;;;;;;;17.82;44.12;100871.75;5092334;28;817;-57
2022/05/02 11:30:02;;;;;;;;;;;;;;;17.78;43.87;100865.97;5098913;28;737;-57
2022/05/02 11:32:34;;;;;;;;;;;;;;;17.81;43.85;100859.09;5098921;28;840;-57
2022/05/02 11:35:08;;;;;;;;;;;;;;;17.73;43.83;100863.28;5085219;28;861;-57
2022/05/02 11:37:36;;;;;;;;;;;;;;;17.68;43.78;100861.34;5079132;28;804;-57
2022/05/02 11:40:02;;;;;;;;;;;;;;;17.70;43.86;100864.66;5080649;28;825;-57
2022/05/02 11:42:28;;;;;;;;;;;;;;;17.69;43.70;100857.50;5077402;28;1112;-57
2022/05/02 11:45:02;;;;;;;;;;;;;;;17.67;43.59;100856.97;5077681;28;1902;-57
2022/05/02 11:47:48;;;;;;;;;;;;;;;17.63;43.63;100869.63;5080350;28;858;-57
2022/05/02 11:50:18;;;;;;;;;;;;;;;17.68;43.23;100861.34;5065433;28;1088;-58
2022/05/02 11:52:44;;;;;;;;;;;;;;;17.62;43.72;100859.72;5077663;28;1017;-57
2022/05/02 11:55:10;;;;;;;;;;;;;;;17.66;43.63;100857.25;5078663;28;815;-57
2022/05/02 11:57:36;;;;;;;;;;;;;;;17.57;43.58;100852.31;5078630;28;991;-57
2022/05/02 12:00:05;;;;;;;;;;;;;;;17.56;43.38;100853.41;5078083;28;881;-57
2022/05/02 12:02:34;;;;;;;;;;;;;;;17.56;43.46;100847.91;5078511;28;923;-57
2022/05/02 12:05:01;;;;;;;;;;;;;;;17.51;43.36;100863.59;5078770;28;1981;-57
2022/05/02 12:07:30;;;;;;;;;;;;;;;17.58;43.05;100851.19;5078541;28;927;-57
2022/05/02 12:10:05;;;;;;;;;;;;;;;17.55;42.96;100849.00;5078101;28;902;-57
2022/05/02 12:12:31;;;;;;;;;;;;;;;17.55;43.15;100845.44;5080051;28;877;-57
2022/05/02 12:15:15;;;;;;;;;;;;;;;17.53;43.20;100856.72;5077893;28;1260;-57
2022/05/02 12:17:51;;;;;;;;;;;;;;;17.54;43.09;100860.28;5092409;28;789;-57
2022/05/02 12:20:26;;;;;;;;;;;;;;;17.49;42.97;100863.03;5098033;28;833;-57
2022/05/02 12:22:55;;;;;;;;;;;;;;;17.48;43.02;100859.47;5097705;28;1038;-57
2022/05/02 12:25:21;;;;;;;;;;;;;;;17.47;43.09;100859.75;5091583;28;1984;-57
2022/05/02 12:27:48;;;;;;;;;;;;;;;17.42;42.84;100864.16;5076864;28;813;-56
2022/05/02 12:30:13;;;;;;;;;;;;;;;17.39;42.96;100855.63;5078005;28;1469;-57
2022/05/02 12:32:39;;;;;;;;;;;;;;;17.42;42.80;100855.09;5077905;28;790;-57
2022/05/02 12:35:04;;;;;;;;;;;;;;;17.43;42.63;100860.31;5078051;28;826;-57
2022/05/02 12:37:33;;;;;;;;;;;;;;;17.39;42.67;100848.22;5075772;28;1049;-57
2022/05/02 12:40:08;;;;;;;;;;;;;;;17.39;42.74;100863.88;5092442;28;981;-57
2022/05/02 12:42:49;;;;;;;;;;;;;;;17.44;42.80;100861.94;5081366;28;884;-57
2022/05/02 12:45:16;;;;;;;;;;;;;;;17.38;42.66;100863.06;5077773;28;1913;-57
2022/05/02 12:47:41;;;;;;;;;;;;;;;17.39;42.72;100866.63;5078358;28;734;-57
2022/05/02 12:50:08;;;;;;;;;;;;;;;17.36;42.67;100864.44;5077203;28;777;-56
2022/05/02 12:52:34;;;;;;;;;;;;;;;17.28;42.70;100857.59;5077643;28;873;-57
2022/05/02 12:54:59;;;;;;;;;;;;;;;17.31;42.76;100857.03;5087918;28;828;-57
2022/05/02 13:00:30;;;;;;;;;;;;;;;17.34;42.36;100859.22;5096951;28;812;-57
2022/05/02 13:02:56;;;;;;;;;;;;;;;17.33;42.36;100857.56;5094214;28;813;-57
2022/05/02 13:05:22;;;;;;;;;;;;;;;17.31;42.50;100857.03;5076952;28;1966;-57
2022/05/02 13:07:56;;;;;;;;;;;;;;;17.29;42.59;100864.69;5075444;28;920;-56
2022/05/02 13:10:22;;;;;;;;;;;;;;;17.26;42.40;100859.75;5077629;28;798;-56
2022/05/02 13:12:53;;;;;;;;;;;;;;;17.22;42.58;100853.16;5076520;28;1234;-57
2022/05/02 13:15:19;;;;;;;;;;;;;;;17.25;42.41;100853.47;5077029;28;817;-57
2022/05/02 13:17:46;;;;;;;;;;;;;;;17.27;42.39;100855.91;5079596;28;896;-57
2022/05/02 13:20:14;;;;;;;;;;;;;;;17.22;42.35;100847.69;5075276;28;801;-57
2022/05/02 13:22:59;;;;;;;;;;;;;;;17.26;42.58;100857.00;5075848;28;938;-57
2022/05/02 13:25:43;;;;;;;;;;;;;;;17.23;42.35;100854.81;5077958;28;1909;-56
2022/05/02 13:28:08;;;;;;;;;;;;;;;17.21;42.44;100846.06;5089144;28;792;-56
2022/05/02 13:30:34;;;;;;;;;;;;;;;17.22;42.37;100847.69;5077256;28;916;-56
2022/05/02 13:33:06;;;;;;;;;;;;;;;17.26;42.29;100846.88;5076917;28;948;-57
2022/05/02 13:35:33;;;;;;;;;;;;;;;17.22;42.47;100844.94;5090020;28;770;-57